createdAt,value
2023-03-11T00:00:20.775Z,3.80
2023-03-11T00:01:20.767Z,3.80
2023-03-11T00:02:20.804Z,3.81
2023-03-11T00:03:20.758Z,3.80
2023-03-11T00:04:20.749Z,3.80
2023-03-11T00:05:20.850Z,3.86
2023-03-11T00:06:20.732Z,3.91
2023-03-11T00:07:20.721Z,3.84
2023-03-11T00:08:20.719Z,3.92
2023-03-11T00:09:20.707Z,3.86
2023-03-11T00:10:20.734Z,3.86
2023-03-11T00:11:20.695Z,3.94
2023-03-11T00:12:20.679Z,3.98
2023-03-11T00:13:20.665Z,3.94
2023-03-11T00:14:20.660Z,3.95
2023-03-11T00:15:20.656Z,3.91
2023-03-11T00:16:20.691Z,4.04
2023-03-11T00:17:20.636Z,3.91
2023-03-11T00:18:20.643Z,4.01
2023-03-11T00:19:20.633Z,3.98
2023-03-11T00:20:20.611Z,4.01
2023-03-11T00:21:20.612Z,3.92
2023-03-11T00:22:20.602Z,3.96
2023-03-11T00:23:20.590Z,3.84
2023-03-11T00:24:20.581Z,4.01
2023-03-11T00:25:20.589Z,4.16
2023-03-11T00:26:20.555Z,4.22
2023-03-11T00:27:20.548Z,4.26
2023-03-11T00:28:20.563Z,4.30
2023-03-11T00:29:20.550Z,4.40
2023-03-11T00:30:20.546Z,4.55
2023-03-11T00:31:20.578Z,4.62
2023-03-11T00:32:20.519Z,4.53
2023-03-11T00:33:20.490Z,4.50
2023-03-11T00:34:20.481Z,4.50
2023-03-11T00:35:20.484Z,4.40
2023-03-11T00:36:20.471Z,4.38
2023-03-11T00:37:20.466Z,4.40
2023-03-11T00:38:20.545Z,4.28
2023-03-11T00:39:20.448Z,4.24
2023-03-11T00:40:20.432Z,4.12
2023-03-11T00:41:20.443Z,4.10
2023-03-11T00:42:20.418Z,4.05
2023-03-11T00:43:20.406Z,3.98
2023-03-11T00:44:20.417Z,3.88
2023-03-11T00:45:20.384Z,3.86
2023-03-11T00:46:20.397Z,3.88
2023-03-11T00:47:20.362Z,3.84
2023-03-11T00:48:20.355Z,3.81
2023-03-11T00:49:20.354Z,3.86
2023-03-11T00:50:20.339Z,3.91
2023-03-11T00:51:20.330Z,3.86
2023-03-11T00:52:20.325Z,3.86
2023-03-11T00:53:20.354Z,3.80
2023-03-11T00:54:20.303Z,3.78
2023-03-11T00:55:20.316Z,3.81
2023-03-11T00:56:20.285Z,3.80
2023-03-11T00:57:20.279Z,3.76
2023-03-11T00:58:20.279Z,3.78
2023-03-11T00:59:20.254Z,3.77
2023-03-11T01:00:20.261Z,3.74
2023-03-11T01:01:20.289Z,3.70
2023-03-11T01:02:20.236Z,3.74
2023-03-11T01:03:20.243Z,3.68
2023-03-11T01:04:20.288Z,3.65
2023-03-11T01:05:20.204Z,3.68
2023-03-11T01:06:20.192Z,3.62
2023-03-11T01:07:20.191Z,3.62
2023-03-11T01:08:20.171Z,3.60
2023-03-11T01:09:20.218Z,3.60
2023-03-11T01:10:20.166Z,3.63
2023-03-11T01:11:20.150Z,3.60
2023-03-11T01:12:20.148Z,3.63
2023-03-11T01:13:20.138Z,3.65
2023-03-11T01:14:20.123Z,3.60
2023-03-11T01:15:20.127Z,3.59
2023-03-11T01:16:20.159Z,3.66
2023-03-11T01:17:20.097Z,3.62
2023-03-11T01:18:20.092Z,3.53
2023-03-11T01:19:20.075Z,3.60
2023-03-11T01:20:20.103Z,3.50
2023-03-11T01:21:20.061Z,3.51
2023-03-11T01:22:20.038Z,3.47
2023-03-11T01:23:20.037Z,3.50
2023-03-11T01:24:20.051Z,3.48
2023-03-11T01:25:20.074Z,3.48
2023-03-11T01:26:20.011Z,3.44
2023-03-11T01:27:20.009Z,3.56
2023-03-11T01:28:19.996Z,3.47
2023-03-11T01:29:19.985Z,3.42
2023-03-11T01:30:19.985Z,3.42
2023-03-11T01:31:19.994Z,3.42
2023-03-11T01:32:20.044Z,3.37
2023-03-11T01:33:19.947Z,3.40
2023-03-11T01:34:19.926Z,3.40
2023-03-11T01:35:19.941Z,3.32
2023-03-11T01:36:19.928Z,3.34
2023-03-11T01:37:19.913Z,3.41
2023-03-11T01:38:19.897Z,3.29
2023-03-11T01:39:19.891Z,3.29
2023-03-11T01:40:19.870Z,3.32
2023-03-11T01:41:19.878Z,3.28
2023-03-11T01:42:19.863Z,3.31
2023-03-11T01:43:19.852Z,3.40
2023-03-11T01:44:19.872Z,3.31
2023-03-11T01:45:19.840Z,3.34
2023-03-11T01:46:19.882Z,3.41
2023-03-11T01:47:19.909Z,3.42
2023-03-11T01:48:19.815Z,3.36
2023-03-11T01:49:19.795Z,3.40
2023-03-11T01:50:19.789Z,3.42
2023-03-11T01:51:19.792Z,3.42
2023-03-11T01:52:19.765Z,3.37
2023-03-11T01:53:19.769Z,3.34
2023-03-11T01:54:19.762Z,3.28
2023-03-11T01:55:19.737Z,3.26
2023-03-11T01:56:19.739Z,3.29
2023-03-11T01:57:19.729Z,3.34
2023-03-11T01:58:19.709Z,3.42
2023-03-11T01:59:19.726Z,3.32
2023-03-11T02:00:19.715Z,3.37
2023-03-11T02:01:19.750Z,3.29
2023-03-11T02:02:19.697Z,3.36
2023-03-11T02:03:19.735Z,3.36
2023-03-11T02:04:19.652Z,3.36
2023-03-11T02:05:19.641Z,3.31
2023-03-11T02:06:19.627Z,3.32
2023-03-11T02:07:19.614Z,3.28
2023-03-11T02:08:19.617Z,3.28
2023-03-11T02:09:19.616Z,3.25
2023-03-11T02:10:19.608Z,3.26
2023-03-11T02:11:19.598Z,3.23
2023-03-11T02:12:19.587Z,3.19
2023-03-11T02:13:19.580Z,3.19
2023-03-11T02:14:19.570Z,3.18
2023-03-11T02:15:19.566Z,3.22
2023-03-11T02:16:19.615Z,3.19
2023-03-11T02:17:19.531Z,3.21
2023-03-11T02:18:19.525Z,3.16
2023-03-11T02:19:19.504Z,3.05
2023-03-11T02:20:19.519Z,3.21
2023-03-11T02:21:19.505Z,3.10
2023-03-11T02:22:19.502Z,3.11
2023-03-11T02:23:19.492Z,3.14
2023-03-11T02:24:19.472Z,3.16
2023-03-11T02:25:19.455Z,3.23
2023-03-11T02:26:19.451Z,3.11
2023-03-11T02:27:19.455Z,3.16
2023-03-11T02:28:19.433Z,3.21
2023-03-11T02:29:19.433Z,3.22
2023-03-11T02:30:19.422Z,3.14
2023-03-11T02:31:19.449Z,3.04
2023-03-11T02:32:19.423Z,3.01
2023-03-11T02:33:19.387Z,3.07
2023-03-11T02:34:19.375Z,3.05
2023-03-11T02:35:19.364Z,3.10
2023-03-11T02:36:19.374Z,3.21
2023-03-11T02:37:19.355Z,3.16
2023-03-11T02:38:19.332Z,3.07
2023-03-11T02:39:19.317Z,3.10
2023-03-11T02:40:19.311Z,3.08
2023-03-11T02:41:19.300Z,3.08
2023-03-11T02:42:19.298Z,3.04
2023-03-11T02:43:19.293Z,3.10
2023-03-11T02:44:19.276Z,3.14
2023-03-11T02:45:19.297Z,3.07
2023-03-11T02:46:19.341Z,3.01
2023-03-11T02:47:19.268Z,3.05
2023-03-11T02:48:19.233Z,3.05
2023-03-11T02:49:19.230Z,3.11
2023-03-11T02:50:19.221Z,3.08
2023-03-11T02:51:19.248Z,3.01
2023-03-11T02:52:19.207Z,3.16
2023-03-11T02:53:19.183Z,3.05
2023-03-11T02:54:19.178Z,3.04
2023-03-11T02:55:19.170Z,3.14
2023-03-11T02:56:19.169Z,3.05
2023-03-11T02:57:19.152Z,3.10
2023-03-11T02:58:19.145Z,3.05
2023-03-11T02:59:19.146Z,3.10
2023-03-11T03:00:19.125Z,3.13
2023-03-11T03:01:19.195Z,3.08
2023-03-11T03:02:19.105Z,3.13
2023-03-11T03:03:19.091Z,3.05
2023-03-11T03:04:19.146Z,3.04
2023-03-11T03:05:19.096Z,3.10
2023-03-11T03:06:19.067Z,3.08
2023-03-11T03:07:19.052Z,3.07
2023-03-11T03:08:19.054Z,3.13
2023-03-11T03:09:19.046Z,3.07
2023-03-11T03:10:19.040Z,2.98
2023-03-11T03:11:19.017Z,2.95
2023-03-11T03:12:19.002Z,3.00
2023-03-11T03:13:18.988Z,3.01
2023-03-11T03:14:18.987Z,2.98
2023-03-11T03:15:18.969Z,3.01
2023-03-11T03:16:19.070Z,3.10
2023-03-11T03:17:19.011Z,3.07
2023-03-11T03:18:18.947Z,3.01
2023-03-11T03:19:18.941Z,2.97
2023-03-11T03:20:18.922Z,2.98
2023-03-11T03:21:18.915Z,2.98
2023-03-11T03:22:18.938Z,2.87
2023-03-11T03:23:18.902Z,2.87
2023-03-11T03:24:18.897Z,2.85
2023-03-11T03:25:18.873Z,2.85
2023-03-11T03:26:18.867Z,2.89
2023-03-11T03:27:18.853Z,2.90
2023-03-11T03:28:18.852Z,2.83
2023-03-11T03:29:18.845Z,2.93
2023-03-11T03:30:18.828Z,2.82
2023-03-11T03:31:18.888Z,2.89
2023-03-11T03:32:18.840Z,2.89
2023-03-11T03:33:18.805Z,2.82
2023-03-11T03:34:18.786Z,2.85
2023-03-11T03:35:18.778Z,2.97
2023-03-11T03:36:18.789Z,2.93
2023-03-11T03:37:18.757Z,2.93
2023-03-11T03:38:18.741Z,2.92
2023-03-11T03:39:18.773Z,2.87
2023-03-11T03:40:18.761Z,2.86
2023-03-11T03:41:18.744Z,2.92
2023-03-11T03:42:18.714Z,2.87
2023-03-11T03:43:18.713Z,2.82
2023-03-11T03:44:18.697Z,2.85
2023-03-11T03:45:18.684Z,2.86
2023-03-11T03:46:18.740Z,2.92
2023-03-11T03:47:18.679Z,3.01
2023-03-11T03:48:18.663Z,2.95
2023-03-11T03:49:18.644Z,2.98
2023-03-11T03:50:18.627Z,2.90
2023-03-11T03:51:18.618Z,2.83
2023-03-11T03:52:18.608Z,2.86
2023-03-11T03:53:18.613Z,3.01
2023-03-11T03:54:18.593Z,2.98
2023-03-11T03:55:18.604Z,2.97
2023-03-11T03:56:18.578Z,3.03
2023-03-11T03:57:18.568Z,3.00
2023-03-11T03:58:18.545Z,3.01
2023-03-11T03:59:18.554Z,3.01
2023-03-11T04:00:18.544Z,3.04
2023-03-11T04:01:18.546Z,3.00
2023-03-11T04:02:18.565Z,2.95
2023-03-11T04:03:18.664Z,3.03
2023-03-11T04:04:18.499Z,3.00
2023-03-11T04:05:18.495Z,3.03
2023-03-11T04:06:18.475Z,2.93
2023-03-11T04:07:18.482Z,2.87
2023-03-11T04:08:18.465Z,2.90
2023-03-11T04:09:18.458Z,2.97
2023-03-11T04:10:18.433Z,2.97
2023-03-11T04:11:18.449Z,3.01
2023-03-11T04:12:18.436Z,2.95
2023-03-11T04:13:18.408Z,2.87
2023-03-11T04:14:18.401Z,2.87
2023-03-11T04:15:18.388Z,2.89
2023-03-11T04:16:18.497Z,2.85
2023-03-11T04:17:18.372Z,2.85
2023-03-11T04:18:18.359Z,2.85
2023-03-11T04:19:18.355Z,2.97
2023-03-11T04:20:18.347Z,2.83
2023-03-11T04:21:18.340Z,3.01
2023-03-11T04:22:18.326Z,2.95
2023-03-11T04:23:18.330Z,2.98
2023-03-11T04:24:18.300Z,2.95
2023-03-11T04:25:18.300Z,3.11
2023-03-11T04:26:18.285Z,3.11
2023-03-11T04:27:18.270Z,3.03
2023-03-11T04:28:18.288Z,2.98
2023-03-11T04:29:18.258Z,3.03
2023-03-11T04:30:18.249Z,2.86
2023-03-11T04:31:18.307Z,2.97
2023-03-11T04:32:18.239Z,2.83
2023-03-11T04:33:18.236Z,2.87
2023-03-11T04:34:18.208Z,2.85
2023-03-11T04:35:26.195Z,2.83
2023-03-11T04:37:22.226Z,2.86
2023-03-11T04:38:22.152Z,2.86
2023-03-11T04:40:26.153Z,2.89
2023-03-11T04:41:26.184Z,2.92
2023-03-11T04:43:19.267Z,2.97
2023-03-11T04:44:19.223Z,2.86
2023-03-11T04:45:19.203Z,2.85
2023-03-11T04:46:19.285Z,2.92
2023-03-11T04:47:19.184Z,2.85
2023-03-11T04:48:19.186Z,2.90
2023-03-11T04:49:19.176Z,2.92
2023-03-11T04:50:19.159Z,2.89
2023-03-11T04:51:19.147Z,2.86
2023-03-11T04:52:19.151Z,2.92
2023-03-11T04:53:19.137Z,2.98
2023-03-11T04:54:19.134Z,3.00
2023-03-11T04:55:19.113Z,3.01
2023-03-11T04:56:19.097Z,3.05
2023-03-11T04:57:19.132Z,2.97
2023-03-11T04:58:19.089Z,2.98
2023-03-11T04:59:19.071Z,3.03
2023-03-11T05:00:19.060Z,3.03
2023-03-11T05:01:19.110Z,3.01
2023-03-11T05:02:19.046Z,3.00
2023-03-11T05:03:19.133Z,2.86
2023-03-11T05:04:19.130Z,2.85
2023-03-11T05:05:19.040Z,2.93
2023-03-11T05:06:19.012Z,2.85
2023-03-11T05:07:19.016Z,2.95
2023-03-11T05:08:18.980Z,2.85
2023-03-11T05:09:18.991Z,2.87
2023-03-11T05:10:18.988Z,2.82
2023-03-11T05:11:18.952Z,2.87
2023-03-11T05:12:18.941Z,2.86
2023-03-11T05:13:18.934Z,2.86
2023-03-11T05:14:18.931Z,2.86
2023-03-11T05:15:18.921Z,2.85
2023-03-11T05:16:18.970Z,2.89
2023-03-11T05:17:18.898Z,2.95
2023-03-11T05:18:18.888Z,2.98
2023-03-11T05:19:18.878Z,3.07
2023-03-11T05:20:18.872Z,2.98
2023-03-11T05:21:18.862Z,3.05
2023-03-11T05:22:18.908Z,3.03
2023-03-11T05:23:18.862Z,3.00
2023-03-11T05:24:18.858Z,3.00
2023-03-11T05:25:18.847Z,3.00
2023-03-11T05:26:18.821Z,3.03
2023-03-11T05:27:18.814Z,3.00
2023-03-11T05:28:18.810Z,3.01
2023-03-11T05:29:18.785Z,2.85
2023-03-11T05:30:18.777Z,2.86
2023-03-11T05:31:18.802Z,2.98
2023-03-11T05:32:18.849Z,3.00
2023-03-11T05:33:18.749Z,3.03
2023-03-11T05:34:18.772Z,3.05
2023-03-11T05:35:18.795Z,3.04
2023-03-11T05:36:18.714Z,3.11
2023-03-11T05:37:18.716Z,3.08
2023-03-11T05:38:18.703Z,3.05
2023-03-11T05:39:18.720Z,3.10
2023-03-11T05:40:18.706Z,3.08
2023-03-11T05:41:18.673Z,3.10
2023-03-11T05:42:21.208Z,3.03
2023-03-11T05:43:18.649Z,3.04
2023-03-11T05:44:18.668Z,3.04
2023-03-11T05:45:18.641Z,3.03
2023-03-11T05:46:18.662Z,2.95
2023-03-11T05:47:18.614Z,2.92
2023-03-11T05:48:18.613Z,2.86
2023-03-11T05:49:18.609Z,2.93
2023-03-11T05:50:18.604Z,2.85
2023-03-11T05:51:18.595Z,2.86
2023-03-11T05:52:18.710Z,2.92
2023-03-11T05:53:18.557Z,2.86
2023-03-11T05:54:18.540Z,2.97
2023-03-11T05:55:18.576Z,2.97
2023-03-11T05:56:18.527Z,3.03
2023-03-11T05:57:18.521Z,2.98
2023-03-11T05:58:18.732Z,3.01
2023-03-11T05:59:18.501Z,3.01
2023-03-11T06:00:18.482Z,2.98
2023-03-11T06:01:18.478Z,2.95
2023-03-11T06:02:18.465Z,2.85
2023-03-11T06:03:18.477Z,2.87
2023-03-11T06:04:18.547Z,2.82
2023-03-11T06:05:18.616Z,2.86
2023-03-11T06:06:18.425Z,2.97
2023-03-11T06:07:18.420Z,3.00
2023-03-11T06:08:18.404Z,3.00
2023-03-11T06:09:18.428Z,2.97
2023-03-11T06:10:18.413Z,3.00
2023-03-11T06:11:18.375Z,3.01
2023-03-11T06:12:18.371Z,3.03
2023-03-11T06:13:18.356Z,2.89
2023-03-11T06:14:18.345Z,2.87
2023-03-11T06:15:18.344Z,2.85
2023-03-11T06:16:18.386Z,2.83
2023-03-11T06:17:18.314Z,2.89
2023-03-11T06:18:18.317Z,2.83
2023-03-11T06:19:18.296Z,3.01
2023-03-11T06:20:18.300Z,2.98
2023-03-11T06:21:18.284Z,2.98
2023-03-11T06:22:18.301Z,3.03
2023-03-11T06:23:18.271Z,3.01
2023-03-11T06:24:18.249Z,3.04
2023-03-11T06:25:18.248Z,3.00
2023-03-11T06:26:18.245Z,3.01
2023-03-11T06:27:18.231Z,3.01
2023-03-11T06:28:18.238Z,3.00
2023-03-11T06:29:18.284Z,2.98
2023-03-11T06:30:18.203Z,3.01
2023-03-11T06:31:18.262Z,2.97
2023-03-11T06:32:18.196Z,3.00
2023-03-11T06:33:18.161Z,3.00
2023-03-11T06:34:18.172Z,2.93
2023-03-11T06:35:18.178Z,2.98
2023-03-11T06:36:18.150Z,2.97
2023-03-11T06:37:18.151Z,3.07
2023-03-11T06:38:18.143Z,3.05
2023-03-11T06:39:18.131Z,2.98
2023-03-11T06:40:18.103Z,3.03
2023-03-11T06:41:18.083Z,3.07
2023-03-11T06:42:18.085Z,3.05
2023-03-11T06:43:18.078Z,3.03
2023-03-11T06:44:18.093Z,3.10
2023-03-11T06:45:20.549Z,3.01
2023-03-11T06:46:18.102Z,3.05
2023-03-11T06:47:18.023Z,2.97
2023-03-11T06:48:18.019Z,3.00
2023-03-11T06:49:18.028Z,3.05
2023-03-11T06:50:18.005Z,2.97
2023-03-11T06:51:18.003Z,2.97
2023-03-11T06:52:17.995Z,2.95
2023-03-11T06:53:17.988Z,2.98
2023-03-11T06:54:18.032Z,2.98
2023-03-11T06:55:17.955Z,2.98
2023-03-11T06:56:17.943Z,2.95
2023-03-11T06:57:17.935Z,3.00
2023-03-11T06:58:17.924Z,3.03
2023-03-11T06:59:17.937Z,3.03
2023-03-11T07:00:17.907Z,2.98
2023-03-11T07:01:17.958Z,2.83
2023-03-11T07:02:17.887Z,2.93
2023-03-11T07:03:17.874Z,2.86
2023-03-11T07:04:17.934Z,2.87
2023-03-11T07:05:17.870Z,2.92
2023-03-11T07:06:17.871Z,2.89
2023-03-11T07:07:17.849Z,2.85
2023-03-11T07:08:17.843Z,2.89
2023-03-11T07:09:17.825Z,2.89
2023-03-11T07:10:17.823Z,2.87
2023-03-11T07:11:17.817Z,2.92
2023-03-11T07:12:17.790Z,2.86
2023-03-11T07:13:18.041Z,2.92
2023-03-11T07:14:17.763Z,2.93
2023-03-11T07:15:17.755Z,2.87
2023-03-11T07:16:18.195Z,2.90
2023-03-11T07:17:17.792Z,2.97
2023-03-11T07:18:17.744Z,2.87
2023-03-11T07:19:17.830Z,2.92
2023-03-11T07:20:17.818Z,2.86
2023-03-11T07:21:17.703Z,2.74
2023-03-11T07:22:17.885Z,2.87
2023-03-11T07:23:18.189Z,2.82
2023-03-11T07:24:17.880Z,2.82
2023-03-11T07:25:17.677Z,2.82
2023-03-11T07:26:17.676Z,2.89
2023-03-11T07:27:17.804Z,2.90
2023-03-11T07:28:17.662Z,2.87
2023-03-11T07:29:17.646Z,2.85
2023-03-11T07:30:18.214Z,2.86
2023-03-11T07:31:17.642Z,2.87
2023-03-11T07:32:17.995Z,3.03
2023-03-11T07:33:17.593Z,3.01
2023-03-11T07:34:17.670Z,3.03
2023-03-11T07:35:17.790Z,2.97
2023-03-11T07:36:17.575Z,3.01
2023-03-11T07:37:17.829Z,3.00
2023-03-11T07:38:17.980Z,3.03
2023-03-11T07:39:17.752Z,3.03
2023-03-11T07:40:17.544Z,3.13
2023-03-11T07:41:17.512Z,3.08
2023-03-11T07:42:17.528Z,3.08
2023-03-11T07:43:17.497Z,3.05
2023-03-11T07:44:17.503Z,3.10
2023-03-11T07:45:17.771Z,3.21
2023-03-11T07:46:17.719Z,3.14
2023-03-11T07:47:17.454Z,3.16
2023-03-11T07:48:17.455Z,3.16
2023-03-11T07:49:17.467Z,3.14
2023-03-11T07:50:17.444Z,3.23
2023-03-11T07:51:17.430Z,3.22
2023-03-11T07:52:17.415Z,3.22
2023-03-11T07:53:17.398Z,3.18
2023-03-11T07:54:17.399Z,3.19
2023-03-11T07:55:17.417Z,3.22
2023-03-11T07:56:17.388Z,3.10
2023-03-11T07:57:17.410Z,3.19
2023-03-11T07:58:17.407Z,3.18
2023-03-11T07:59:17.348Z,3.11
2023-03-11T08:00:17.358Z,3.04
2023-03-11T08:01:17.352Z,3.22
2023-03-11T08:02:17.405Z,3.18
2023-03-11T08:03:17.356Z,3.21
2023-03-11T08:04:17.324Z,3.25
2023-03-11T08:05:17.300Z,3.28
2023-03-11T08:06:17.294Z,3.41
2023-03-11T08:07:17.277Z,3.59
2023-03-11T08:08:17.281Z,3.91
2023-03-11T08:09:17.282Z,4.06
2023-03-11T08:10:17.252Z,4.08
2023-03-11T08:11:17.266Z,4.24
2023-03-11T08:12:17.237Z,4.24
2023-03-11T08:13:17.238Z,4.22
2023-03-11T08:14:17.236Z,4.23
2023-03-11T08:15:17.239Z,4.17
2023-03-11T08:16:17.231Z,4.17
2023-03-11T08:17:17.235Z,4.20
2023-03-11T08:18:17.230Z,4.12
2023-03-11T08:19:17.220Z,4.10
2023-03-11T08:20:17.182Z,4.04
2023-03-11T08:21:17.185Z,4.01
2023-03-11T08:22:17.318Z,3.83
2023-03-11T08:23:17.178Z,3.86
2023-03-11T08:24:17.171Z,3.86
2023-03-11T08:25:17.174Z,3.81
2023-03-11T08:26:17.152Z,3.88
2023-03-11T08:27:17.144Z,3.83
2023-03-11T08:28:17.164Z,3.87
2023-03-11T08:29:17.115Z,3.84
2023-03-11T08:30:17.151Z,4.20
2023-03-11T08:31:17.207Z,4.42
2023-03-11T08:32:17.144Z,4.68
2023-03-11T08:33:17.110Z,4.92
2023-03-11T08:34:17.121Z,5.08
2023-03-11T08:35:17.086Z,5.04
2023-03-11T08:36:17.077Z,5.08
2023-03-11T08:37:17.099Z,5.20
2023-03-11T08:38:17.081Z,5.08
2023-03-11T08:39:17.103Z,5.12
2023-03-11T08:40:17.082Z,4.97
2023-03-11T08:41:17.094Z,4.96
2023-03-11T08:42:17.074Z,5.05
2023-03-11T08:43:17.048Z,4.73
2023-03-11T08:44:17.054Z,4.59
2023-03-11T08:45:17.134Z,4.67
2023-03-11T08:46:17.125Z,4.55
2023-03-11T08:47:17.066Z,4.38
2023-03-11T08:48:17.037Z,4.42
2023-03-11T08:49:17.022Z,4.35
2023-03-11T08:50:17.036Z,4.31
2023-03-11T08:51:17.042Z,4.32
2023-03-11T08:52:17.003Z,4.30
2023-03-11T08:53:16.998Z,4.17
2023-03-11T08:54:16.991Z,4.23
2023-03-11T08:55:16.991Z,4.19
2023-03-11T08:56:16.977Z,4.20
2023-03-11T08:57:16.963Z,4.08
2023-03-11T08:58:16.974Z,4.04
2023-03-11T08:59:16.948Z,4.13
2023-03-11T09:00:16.945Z,4.10
2023-03-11T09:01:16.958Z,4.13
2023-03-11T09:02:16.954Z,4.10
2023-03-11T09:03:16.939Z,4.02
2023-03-11T09:04:16.981Z,3.99
2023-03-11T09:05:16.919Z,3.83
2023-03-11T09:06:16.989Z,3.86
2023-03-11T09:07:16.914Z,3.86
2023-03-11T09:08:16.901Z,3.95
2023-03-11T09:09:16.884Z,3.83
2023-03-11T09:10:16.888Z,3.84
2023-03-11T09:11:16.896Z,3.80
2023-03-11T09:12:16.912Z,3.78
2023-03-11T09:13:16.854Z,3.83
2023-03-11T09:14:16.859Z,3.80
2023-03-11T09:15:16.911Z,3.76
2023-03-11T09:16:17.004Z,3.77
2023-03-11T09:17:16.838Z,3.73
2023-03-11T09:18:16.816Z,3.86
2023-03-11T09:19:16.789Z,3.86
2023-03-11T09:20:16.796Z,4.01
2023-03-11T09:21:16.797Z,4.05
2023-03-11T09:22:16.804Z,4.02
2023-03-11T09:23:16.774Z,4.12
2023-03-11T09:24:16.763Z,4.02
2023-03-11T09:25:16.760Z,4.04
2023-03-11T09:26:16.749Z,4.08
2023-03-11T09:27:16.729Z,4.12
2023-03-11T09:28:16.782Z,4.04
2023-03-11T09:29:16.721Z,4.10
2023-03-11T09:30:16.729Z,4.04
2023-03-11T09:31:16.823Z,3.99
2023-03-11T09:32:16.726Z,4.10
2023-03-11T09:33:16.707Z,4.10
2023-03-11T09:34:16.686Z,4.10
2023-03-11T09:35:16.677Z,4.08
2023-03-11T09:36:16.672Z,4.02
2023-03-11T09:37:16.661Z,4.12
2023-03-11T09:38:16.655Z,4.05
2023-03-11T09:39:16.653Z,4.06
2023-03-11T09:40:16.665Z,4.06
2023-03-11T09:41:16.637Z,3.98
2023-03-11T09:42:16.667Z,4.01
2023-03-11T09:43:16.658Z,4.01
2023-03-11T09:44:16.613Z,3.98
2023-03-11T09:45:16.621Z,4.04
2023-03-11T09:46:16.646Z,4.02
2023-03-11T09:47:16.570Z,3.94
2023-03-11T09:48:16.558Z,3.88
2023-03-11T09:49:16.549Z,3.80
2023-03-11T09:50:16.553Z,3.78
2023-03-11T09:51:16.534Z,3.78
2023-03-11T09:52:16.583Z,3.80
2023-03-11T09:53:16.556Z,3.83
2023-03-11T09:54:16.509Z,3.80
2023-03-11T09:55:16.500Z,3.80
2023-03-11T09:56:16.495Z,3.77
2023-03-11T09:57:16.488Z,3.76
2023-03-11T09:58:16.510Z,3.84
2023-03-11T09:59:16.472Z,3.83
2023-03-11T10:00:16.461Z,3.77
2023-03-11T10:01:16.489Z,3.84
2023-03-11T10:02:16.510Z,3.87
2023-03-11T10:03:16.492Z,3.86
2023-03-11T10:04:16.447Z,3.77
2023-03-11T10:05:16.421Z,3.77
2023-03-11T10:06:16.411Z,3.78
2023-03-11T10:07:16.401Z,3.73
2023-03-11T10:08:16.393Z,3.63
2023-03-11T10:09:16.393Z,3.68
2023-03-11T10:10:16.407Z,3.66
2023-03-11T10:11:16.374Z,3.66
2023-03-11T10:12:16.396Z,3.63
2023-03-11T10:13:16.367Z,3.68
2023-03-11T10:14:16.345Z,3.73
2023-03-11T10:15:16.370Z,3.73
2023-03-11T10:16:16.386Z,3.69
2023-03-11T10:17:16.323Z,3.78
2023-03-11T10:18:16.316Z,3.80
2023-03-11T10:19:16.293Z,3.78
2023-03-11T10:20:16.305Z,3.81
2023-03-11T10:21:16.392Z,3.77
2023-03-11T10:22:16.334Z,3.77
2023-03-11T10:23:16.295Z,3.76
2023-03-11T10:24:16.270Z,3.81
2023-03-11T10:25:16.246Z,3.81
2023-03-11T10:26:16.228Z,3.77
2023-03-11T10:27:16.236Z,3.76
2023-03-11T10:28:16.216Z,3.81
2023-03-11T10:29:16.224Z,3.77
2023-03-11T10:30:16.221Z,3.83
2023-03-11T10:31:16.244Z,3.92
2023-03-11T10:32:16.207Z,3.87
2023-03-11T10:33:16.172Z,3.98
2023-03-11T10:34:16.159Z,4.06
2023-03-11T10:35:23.326Z,4.08
2023-03-11T10:37:20.206Z,4.17
2023-03-11T10:38:20.182Z,4.24
2023-03-11T10:40:24.378Z,4.24
2023-03-11T10:41:24.148Z,4.40
2023-03-11T10:43:28.181Z,4.40
2023-03-11T10:44:28.132Z,4.40
2023-03-11T10:46:21.017Z,4.50
2023-03-11T10:47:20.992Z,4.53
2023-03-11T10:49:25.032Z,4.55
2023-03-11T10:50:24.980Z,4.52
2023-03-11T10:52:29.571Z,4.49
2023-03-11T10:53:29.389Z,4.37
2023-03-11T10:55:33.181Z,4.26
2023-03-11T10:56:33.142Z,4.17
2023-03-11T10:58:37.111Z,4.04
2023-03-11T10:59:37.092Z,4.04
2023-03-11T11:01:41.092Z,4.10
2023-03-11T11:02:43.560Z,4.13
2023-03-11T11:04:45.023Z,4.10
2023-03-11T11:05:45.011Z,4.05
2023-03-11T11:07:49.019Z,4.06
2023-03-11T11:08:48.991Z,4.08
2023-03-11T11:10:52.974Z,4.05
2023-03-11T11:11:52.934Z,4.10
2023-03-11T11:13:57.414Z,4.20
2023-03-11T11:14:56.917Z,4.12
2023-03-11T11:16:50.433Z,4.10
2023-03-11T11:17:50.170Z,4.05
2023-03-11T11:19:53.974Z,4.10
2023-03-11T11:20:53.946Z,4.12
2023-03-11T11:22:58.389Z,4.19
2023-03-11T11:23:57.918Z,4.16
2023-03-11T11:25:50.908Z,4.10
2023-03-11T11:26:50.848Z,4.05
2023-03-11T11:28:54.836Z,4.10
2023-03-11T11:29:54.862Z,4.05
2023-03-11T11:31:58.843Z,4.08
2023-03-11T11:32:58.835Z,4.08
2023-03-11T11:35:02.793Z,4.17
2023-03-11T11:36:02.771Z,4.23
2023-03-11T11:38:06.787Z,4.24
2023-03-11T11:39:06.755Z,4.16
2023-03-11T11:41:10.721Z,4.08
2023-03-11T11:42:10.702Z,4.17
2023-03-11T11:44:14.698Z,4.22
2023-03-11T11:45:14.650Z,4.23
2023-03-11T11:47:18.640Z,4.24
2023-03-11T11:48:18.630Z,4.32
2023-03-11T11:50:22.647Z,4.44
2023-03-11T11:51:22.620Z,4.45
2023-03-11T11:53:27.084Z,4.52
2023-03-11T11:54:27.059Z,4.50
2023-03-11T11:56:20.004Z,4.55
2023-03-11T11:57:19.947Z,4.68
2023-03-11T11:59:23.964Z,4.59
2023-03-11T12:00:23.916Z,4.58
2023-03-11T12:02:27.916Z,4.59
2023-03-11T12:03:27.892Z,4.68
2023-03-11T12:05:31.867Z,4.50
2023-03-11T12:06:31.834Z,4.42
2023-03-11T12:08:35.881Z,4.44
2023-03-11T12:09:35.799Z,4.55
2023-03-11T12:11:41.819Z,4.67
2023-03-11T12:12:39.766Z,4.55
2023-03-11T12:14:43.934Z,4.68
2023-03-11T12:15:43.823Z,4.60
2023-03-11T12:17:47.782Z,4.71
2023-03-11T12:18:47.758Z,4.71
2023-03-11T12:20:51.779Z,4.73
2023-03-11T12:21:51.739Z,4.77
2023-03-11T12:23:57.627Z,4.59
2023-03-11T12:24:55.773Z,4.55
2023-03-11T12:26:48.630Z,4.52
2023-03-11T12:27:48.625Z,4.66
2023-03-11T12:29:52.708Z,4.70
2023-03-11T12:30:52.722Z,4.68
2023-03-11T12:32:56.613Z,4.80
2023-03-11T12:33:56.588Z,4.84
2023-03-11T12:36:00.667Z,4.62
2023-03-11T12:37:00.534Z,4.68
2023-03-11T12:39:04.544Z,4.53
2023-03-11T12:40:04.506Z,4.55
2023-03-11T12:42:08.547Z,4.59
2023-03-11T12:43:08.475Z,4.62
2023-03-11T12:45:12.490Z,4.59
2023-03-11T12:46:12.488Z,4.59
2023-03-11T12:48:16.508Z,4.59
2023-03-11T12:49:16.443Z,4.55
2023-03-11T12:51:20.427Z,4.58
2023-03-11T12:52:20.408Z,4.58
2023-03-11T12:54:24.425Z,4.59
2023-03-11T12:55:24.385Z,4.63
2023-03-11T12:57:28.407Z,4.63
2023-03-11T12:58:28.354Z,4.68
2023-03-11T13:00:32.342Z,4.71
2023-03-11T13:01:32.373Z,4.73
2023-03-11T13:03:36.341Z,4.70
2023-03-11T13:04:36.302Z,4.73
2023-03-11T13:06:29.191Z,4.66
2023-03-11T13:07:29.211Z,4.70
2023-03-11T13:09:33.165Z,4.58
2023-03-11T13:10:33.153Z,4.67
2023-03-11T13:12:37.122Z,4.73
2023-03-11T13:13:37.097Z,4.60
2023-03-11T13:15:41.116Z,4.68
2023-03-11T13:16:41.158Z,4.70
2023-03-11T13:18:45.191Z,4.63
2023-03-11T13:19:45.141Z,4.60
2023-03-11T13:21:49.131Z,4.68
2023-03-11T13:22:49.131Z,4.63
2023-03-11T13:24:53.155Z,4.68
2023-03-11T13:25:53.118Z,4.63
2023-03-11T13:27:57.104Z,4.67
2023-03-11T13:28:57.099Z,4.62
2023-03-11T13:31:01.109Z,4.53
2023-03-11T13:32:01.075Z,4.53
2023-03-11T13:34:05.528Z,4.42
2023-03-11T13:35:05.078Z,4.45
2023-03-11T13:37:09.041Z,4.44
2023-03-11T13:38:08.991Z,4.58
2023-03-11T13:40:12.964Z,4.53
2023-03-11T13:41:12.954Z,4.67
2023-03-11T13:43:17.000Z,4.63
2023-03-11T13:44:16.939Z,4.58
2023-03-11T13:46:09.995Z,4.53
2023-03-11T13:47:09.844Z,4.67
2023-03-11T13:49:13.810Z,4.66
2023-03-11T13:50:13.771Z,4.68
2023-03-11T13:52:17.782Z,4.55
2023-03-11T13:53:17.751Z,4.60
2023-03-11T13:55:21.738Z,4.67
2023-03-11T13:56:21.765Z,4.73
2023-03-11T13:58:25.751Z,4.87
2023-03-11T13:59:25.723Z,4.75
2023-03-11T14:01:29.785Z,4.94
2023-03-11T14:02:29.741Z,4.90
2023-03-11T14:04:33.718Z,4.78
2023-03-11T14:05:33.676Z,4.74
2023-03-11T14:07:37.758Z,4.73
2023-03-11T14:08:37.642Z,4.68
2023-03-11T14:10:41.659Z,4.62
2023-03-11T14:11:41.585Z,4.66
2023-03-11T14:12:41.576Z,4.68
2023-03-11T14:13:41.570Z,4.68
2023-03-11T14:14:41.562Z,4.68
2023-03-11T14:15:41.551Z,4.71
2023-03-11T14:16:41.569Z,4.71
2023-03-11T14:17:41.539Z,4.87
2023-03-11T14:18:41.545Z,4.87
2023-03-11T14:19:41.519Z,4.93
2023-03-11T14:20:41.648Z,4.93
2023-03-11T14:21:41.508Z,4.92
2023-03-11T14:22:41.501Z,4.96
2023-03-11T14:23:41.512Z,4.97
2023-03-11T14:24:41.486Z,4.92
2023-03-11T14:25:41.481Z,5.04
2023-03-11T14:26:41.497Z,5.07
2023-03-11T14:27:41.455Z,5.08
2023-03-11T14:28:41.454Z,5.14
2023-03-11T14:29:41.439Z,5.15
2023-03-11T14:30:41.449Z,5.11
2023-03-11T14:31:41.521Z,5.15
2023-03-11T14:32:41.493Z,5.17
2023-03-11T14:33:41.422Z,5.23
2023-03-11T14:34:41.405Z,5.23
2023-03-11T14:35:41.444Z,5.25